Terminal Aerodrome Forecast
Issued by NWS

Home | Current Version | Previous Version | Text Only | Print | Product List | Glossary On
Versions: 1 2 3 4 5 6 7 8 9 10 11 12
000
FTUS43 KAPX 242322
TAFMBL
TAF
KMBL 242322Z 2500/2524 21009KT P6SM VCSH SCT070 BKN100
     FM250300 VRB03KT P6SM SCT070 BKN120
     FM251700 31007KT P6SM SCT050 BKN200
      AMD LTD TO CLD VIS AND WIND=

USA.gov is the U.S. government's official web portal to all federal, state and local government web resources and services.